17J

Donalsonville Municipal Airport

Donalsonville, Georgia, USA
METAR K17J 261255Z AUTO 24003KT 10SM CLR 17/15 A2990 RMK AO2 T01670147
Observed Flight Rules
Apr-26 @ 12:55 UTC (35 minutes ago) Visual Flight Rules
Wind Visibility Clouds
240° at 3 knots 10 miles
  • Clear skies
Temperatures Readings
Current 17°C / 63°F
Dewpoint 15°C / 59°F
Humidity 88%
Altimeter 29.9" Hg
Pressure 1013 hPa
Elevation 45
METAR K17J 261255Z AUTO 24003KT 10SM CLR 17/15 A2990 RMK AO2 T01670147
Observed Flight Rules
Apr-26 @ 12:55 UTC
(35 minutes ago)
VFR
Wind Visibility
240° at 3 knots 10 miles
Clouds
  • Clear skies
Temperature Dewpoint
17°C / 63°F 15°C / 59°F
Humidity Altimeter Pressure
88% 29.9" Hg 1013 hPa